Time;durP1;ratioP1;P1;durP2;ratioP2;P2;SDS_P1;SDS_P2;PMS_P1;PMS_P2;Temp;Humidity;BMP_temperature;BMP_pressure;BME280_temperature;BME280_humidity;BME280_pressure;Samples;Min_cycle;Max_cycle;Signal;HPM_P1;HPM_P2
2022/11/28 00:00:54;;;;;;;7.47;5.22;;;6.70;99.90;;;;;;5109386;27;20043;-79
2022/11/28 00:03:21;;;;;;;9.15;5.97;;;6.20;99.90;;;;;;5128167;27;20043;-80
2022/11/28 00:05:47;;;;;;;12.10;5.90;;;6.20;99.90;;;;;;5126209;27;20047;-80
2022/11/28 00:08:13;;;;;;;8.80;5.38;;;7.20;99.90;;;;;;5127115;27;20051;-80
2022/11/28 00:10:40;;;;;;;8.43;5.82;;;6.20;99.90;;;;;;5126663;27;20047;-80
2022/11/28 00:13:06;;;;;;;10.20;5.82;;;6.20;99.90;;;;;;5125249;27;20054;-81
2022/11/28 00:15:32;;;;;;;7.50;4.85;;;6.20;99.90;;;;;;5128619;27;20039;-80
2022/11/28 00:17:57;;;;;;;9.27;5.22;;;6.20;99.90;;;;;;5127351;27;20429;-80
2022/11/28 00:20:23;;;;;;;8.63;5.88;;;6.20;99.90;;;;;;5127737;27;20042;-81
2022/11/28 00:22:49;;;;;;;9.60;6.22;;;6.50;99.90;;;;;;5108984;27;20105;-80
2022/11/28 00:25:15;;;;;;;9.63;5.53;;;6.20;99.90;;;;;;5126572;27;20039;-81
2022/11/28 00:27:40;;;;;;;9.98;5.20;;;6.20;99.90;;;;;;5127824;27;20465;-81
2022/11/28 00:30:06;;;;;;;12.25;5.53;;;6.20;99.90;;;;;;5126497;27;20142;-80
2022/11/28 00:32:32;;;;;;;12.30;5.25;;;6.20;99.90;;;;;;5126956;27;20034;-81
2022/11/28 00:34:58;;;;;;;9.65;5.00;;;7.00;99.90;;;;;;5125731;27;20043;-81
2022/11/28 00:37:23;;;;;;;11.15;5.93;;;6.20;99.90;;;;;;5126970;27;20071;-80
2022/11/28 00:39:49;;;;;;;12.50;5.82;;;6.90;99.90;;;;;;5124990;27;20051;-81
2022/11/28 00:42:19;;;;;;;8.55;5.28;;;6.20;99.90;;;;;;5124932;27;20055;-81
2022/11/28 00:44:45;;;;;;;10.85;5.75;;;6.20;99.90;;;;;;5125941;27;20134;-81
2022/11/28 00:47:10;;;;;;;9.77;5.28;;;6.20;99.90;;;;;;5107323;27;20130;-80
2022/11/28 00:49:36;;;;;;;8.65;5.72;;;6.20;99.90;;;;;;5126043;27;20070;-81
2022/11/28 00:52:02;;;;;;;9.35;5.90;;;6.20;99.90;;;;;;5124752;27;20039;-80
2022/11/28 00:54:28;;;;;;;7.82;5.68;;;6.20;99.90;;;;;;5126832;27;20046;-81
2022/11/28 00:56:53;;;;;;;12.02;5.18;;;6.30;99.90;;;;;;5126603;27;20051;-81
2022/11/28 00:59:19;;;;;;;8.93;5.32;;;6.30;99.90;;;;;;5125168;27;20060;-80
2022/11/28 01:01:45;;;;;;;8.70;5.47;;;6.20;99.90;;;;;;5126677;27;20410;-80
2022/11/28 01:04:13;;;;;;;7.93;4.75;;;6.30;99.90;;;;;;5124596;27;20043;-80
2022/11/28 01:06:43;;;;;;;8.85;5.43;;;6.30;99.90;;;;;;5125967;27;20047;-80
2022/11/28 01:09:17;;;;;;;7.97;5.07;;;6.30;99.90;;;;;;5126035;27;20038;-80
2022/11/28 01:11:45;;;;;;;8.65;4.93;;;6.30;99.90;;;;;;5126811;27;20047;-80
2022/11/28 01:14:11;;;;;;;7.63;4.93;;;6.30;99.90;;;;;;5126324;27;20058;-80
2022/11/28 01:16:37;;;;;;;9.20;5.38;;;6.60;99.90;;;;;;5124663;27;20039;-80
2022/11/28 01:19:04;;;;;;;8.52;5.43;;;6.30;99.90;;;;;;5107925;27;20043;-80
2022/11/28 01:21:30;;;;;;;7.40;4.82;;;6.30;99.90;;;;;;5124420;27;20078;-80
2022/11/28 01:23:56;;;;;;;9.55;5.72;;;6.30;99.90;;;;;;5126103;27;20123;-80
2022/11/28 01:26:27;;;;;;;10.35;5.28;;;6.60;99.90;;;;;;5124603;27;20046;-80
2022/11/28 01:28:53;;;;;;;8.30;5.10;;;6.30;99.90;;;;;;5126673;27;20039;-80
2022/11/28 01:31:21;;;;;;;10.63;5.80;;;7.40;99.90;;;;;;5126022;27;20386;-80
2022/11/28 01:33:47;;;;;;;12.50;5.25;;;6.30;99.90;;;;;;5124772;27;20440;-80
2022/11/28 01:36:14;;;;;;;12.98;5.75;;;6.30;99.90;;;;;;5126755;27;20035;-81
2022/11/28 01:38:40;;;;;;;8.13;5.30;;;6.40;99.90;;;;;;5125428;27;20371;-80
2022/11/28 01:41:06;;;;;;;16.70;5.95;;;7.40;99.90;;;;;;5147849;27;20042;-80
2022/11/28 01:43:32;;;;;;;10.50;5.95;;;6.40;99.90;;;;;;5127690;27;20034;-80
2022/11/28 01:45:58;;;;;;;7.28;5.15;;;6.40;99.90;;;;;;5128786;27;20030;-81
2022/11/28 01:48:26;;;;;;;9.27;5.00;;;6.40;99.90;;;;;;5146481;27;20042;-80
2022/11/28 01:50:57;;;;;;;11.82;6.55;;;6.40;99.90;;;;;;5146004;27;20095;-80
2022/11/28 01:53:25;;;;;;;10.60;5.00;;;6.40;99.90;;;;;;5129181;27;20043;-80
2022/11/28 01:56:04;;;;;;;9.43;5.53;;;6.40;99.90;;;;;;5127079;27;20047;-81
2022/11/28 01:58:33;;;;;;;9.18;5.38;;;6.40;99.90;;;;;;5147167;27;20421;-81
2022/11/28 02:00:59;;;;;;;8.90;5.68;;;7.30;99.90;;;;;;5127738;27;20598;-80
2022/11/28 02:03:29;;;;;;;16.90;5.53;;;6.40;99.90;;;;;;5093789;27;20042;-80
2022/11/28 02:05:56;;;;;;;8.38;6.10;;;6.50;99.90;;;;;;5111195;27;20433;-81
2022/11/28 02:08:21;;;;;;;10.50;5.75;;;7.20;99.90;;;;;;5145623;27;20117;-80
2022/11/28 02:11:25;;;;;;;9.75;5.63;;;6.40;99.90;;;;;;5147132;27;20127;-80
2022/11/28 02:14:10;;;;;;;;;;;6.40;99.90;;;;;;5128031;27;20047;-80
2022/11/28 02:16:55;;;;;;;13.95;6.28;;;6.40;99.90;;;;;;5146256;27;19925;-81
2022/11/28 02:19:30;;;;;;;10.43;5.72;;;6.50;99.90;;;;;;5111475;27;20082;-81
2022/11/28 02:22:27;;;;;;;12.48;5.97;;;6.40;99.90;;;;;;5127053;27;20129;-80
2022/11/28 02:25:07;;;;;;;11.32;6.05;;;6.40;99.90;;;;;;5110772;27;20413;-80
2022/11/28 02:28:00;;;;;;;15.90;6.57;;;6.50;99.90;;;;;;5127898;27;20500;-81
2022/11/28 02:30:52;;;;;;;19.58;6.60;;;6.40;99.90;;;;;;5145596;27;20042;-81
2022/11/28 02:33:36;;;;;;;12.25;7.35;;;6.50;99.90;;;;;;5149322;27;20042;-81
2022/11/28 02:36:11;;;;;;;12.98;7.03;;;6.40;99.90;;;;;;5131688;27;20528;-81
2022/11/28 02:38:43;;;;;;;14.32;7.13;;;6.90;99.90;;;;;;5130352;27;20043;-81
2022/11/28 02:41:11;;;;;;;17.50;7.07;;;6.40;99.90;;;;;;5132379;27;20046;-81
2022/11/28 02:43:50;;;;;;;11.00;6.93;;;6.50;99.90;;;;;;5149588;27;20079;-81
2022/11/28 02:46:28;;;;;;;12.57;7.07;;;6.50;99.90;;;;;;5131618;27;20414;-81
2022/11/28 02:48:58;;;;;;;12.85;7.75;;;6.50;99.90;;;;;;5130895;27;20094;-81
2022/11/28 02:51:53;;;;;;;13.23;7.05;;;7.00;99.90;;;;;;5130373;27;20047;-81
2022/11/28 02:54:20;;;;;;;14.48;6.65;;;6.40;99.90;;;;;;5114563;27;20051;-81
2022/11/28 02:56:51;;;;;;;15.05;7.30;;;6.50;99.90;;;;;;5130726;27;20079;-81
2022/11/28 02:59:38;;;;;;;12.50;7.05;;;6.40;99.90;;;;;;5131443;27;20397;-81
2022/11/28 03:02:13;;;;;;;19.40;7.65;;;6.40;99.90;;;;;;5150214;27;20082;-81
2022/11/28 03:05:08;;;;;;;9.82;7.00;;;6.40;99.90;;;;;;5130189;27;20533;-81
2022/11/28 03:08:00;;;;;;;10.00;7.05;;;6.40;99.90;;;;;;5130963;27;20133;-81
2022/11/28 03:10:50;;;;;;;7.63;5.20;;;6.40;99.90;;;;;;5113842;27;20489;-81
2022/11/28 03:13:35;;;;;;;12.60;7.97;;;6.40;99.90;;;;;;5112922;27;20091;-81
2022/11/28 03:16:16;;;;;;;12.63;7.82;;;5.80;99.90;;;;;;5131152;27;20189;-81
2022/11/28 03:19:08;;;;;;;16.23;7.95;;;6.40;99.90;;;;;;5113542;27;20058;-81
2022/11/28 03:22:06;;;;;;;19.83;7.47;;;6.40;99.90;;;;;;5112383;27;20042;-82
2022/11/28 03:25:22;;;;;;;13.63;7.50;;;6.40;99.90;;;;;;5131088;27;20397;-81
2022/11/28 03:28:11;;;;;;;14.55;8.35;;;6.40;99.90;;;;;;5028493;28;20102;-81
2022/11/28 03:30:39;;;;;;;14.27;8.70;;;6.40;99.90;;;;;;5148202;27;20049;-82
2022/11/28 03:33:06;;;;;;;9.77;7.45;;;6.70;99.90;;;;;;5131559;27;20086;-81
2022/11/28 03:35:40;;;;;;;11.85;8.25;;;6.40;99.90;;;;;;5112954;27;20031;-81
2022/11/28 03:38:11;;;;;;;13.18;8.52;;;6.40;99.90;;;;;;5149009;27;20042;-81
2022/11/28 03:40:44;;;;;;;13.68;8.10;;;6.40;99.90;;;;;;5130183;27;20051;-81
2022/11/28 03:43:25;;;;;;;13.80;9.02;;;6.50;99.90;;;;;;5128744;27;20116;-81
2022/11/28 03:45:55;;;;;;;17.92;9.10;;;6.40;99.90;;;;;;5130892;27;20396;-81
2022/11/28 03:48:31;;;;;;;14.38;9.70;;;7.60;99.90;;;;;;5129859;27;20042;-81
2022/11/28 03:51:25;;;;;;;17.50;10.13;;;7.40;99.90;;;;;;5129613;27;20117;-81
2022/11/28 03:54:30;;;;;;;15.73;9.48;;;6.50;99.90;;;;;;5149037;27;20125;-81
2022/11/28 03:57:34;;;;;;;14.50;8.85;;;6.50;99.90;;;;;;5111705;27;20050;-81
2022/11/28 04:00:06;;;;;;;17.88;11.57;;;6.50;99.90;;;;;;5090056;27;20062;-81
2022/11/28 04:02:41;;;;;;;15.50;9.82;;;6.50;99.90;;;;;;5130461;27;20054;-81
2022/11/28 04:05:32;;;;;;;15.85;9.40;;;6.60;99.90;;;;;;5129352;27;20385;-81
2022/11/28 04:08:10;;;;;;;13.93;9.48;;;6.60;99.90;;;;;;5148038;27;20049;-81
2022/11/28 04:10:56;;;;;;;15.95;9.93;;;6.60;99.90;;;;;;5148624;27;20069;-81
2022/11/28 04:13:31;;;;;;;13.80;10.35;;;6.60;99.90;;;;;;5147401;27;20039;-81
2022/11/28 04:16:03;;;;;;;16.90;10.18;;;7.30;99.90;;;;;;5129702;27;20089;-81
2022/11/28 04:18:48;;;;;;;16.02;10.60;;;6.70;99.90;;;;;;5129337;27;20038;-81
2022/11/28 04:21:53;;;;;;;15.13;10.38;;;6.70;99.90;;;;;;5111454;27;20039;-80
2022/11/28 04:24:29;;;;;;;16.88;10.60;;;6.70;99.90;;;;;;5130161;27;20457;-81
2022/11/28 04:27:00;;;;;;;14.88;10.48;;;6.70;99.90;;;;;;5129250;27;20382;-81
2022/11/28 04:29:30;;;;;;;16.40;11.05;;;6.70;99.90;;;;;;5128953;27;20100;-81
2022/11/28 04:31:57;;;;;;;17.17;11.50;;;6.70;99.90;;;;;;5129375;27;20398;-81
2022/11/28 04:34:25;;;;;;;17.08;10.65;;;6.80;99.90;;;;;;5128442;27;20439;-81
2022/11/28 04:36:52;;;;;;;18.40;10.90;;;6.80;99.90;;;;;;5129648;27;20130;-81
2022/11/28 04:39:22;;;;;;;15.98;11.38;;;7.90;99.90;;;;;;5128494;27;20104;-81
2022/11/28 04:41:53;;;;;;;15.50;12.25;;;7.10;99.90;;;;;;5148112;27;20449;-81
2022/11/28 04:44:26;;;;;;;17.90;11.48;;;6.80;99.90;;;;;;5128510;27;20058;-81
2022/11/28 04:46:54;;;;;;;14.93;11.27;;;6.90;99.90;;;;;;5128298;27;20042;-81
2022/11/28 04:49:20;;;;;;;14.77;11.75;;;6.80;99.90;;;;;;5111956;27;20088;-81
2022/11/28 04:52:07;;;;;;;22.17;12.98;;;6.90;99.90;;;;;;5076948;27;20095;-81
2022/11/28 04:54:44;;;;;;;18.38;12.75;;;6.90;99.90;;;;;;5112007;27;20043;-81
2022/11/28 04:57:18;;;;;;;19.92;12.70;;;6.90;99.90;;;;;;5128381;27;20138;-80
2022/11/28 04:59:45;;;;;;;27.80;12.27;;;7.40;99.90;;;;;;5127906;27;20494;-80
2022/11/28 05:02:13;;;;;;;18.02;12.25;;;7.10;99.90;;;;;;5128947;27;20051;-81
2022/11/28 05:04:41;;;;;;;20.40;12.90;;;8.10;99.90;;;;;;5110227;27;20078;-80
2022/11/28 05:07:08;;;;;;;15.90;12.13;;;7.00;99.90;;;;;;5129610;27;20107;-81
2022/11/28 05:09:34;;;;;;;15.68;11.75;;;7.10;99.90;;;;;;5128401;27;20080;-81
2022/11/28 05:12:00;;;;;;;19.42;13.73;;;7.10;99.90;;;;;;5111239;27;20355;-81
2022/11/28 05:14:26;;;;;;;18.63;13.88;;;8.20;99.90;;;;;;5111111;27;20120;-80
2022/11/28 05:16:51;;;;;;;17.67;13.10;;;7.10;99.90;;;;;;5128302;27;20122;-80
2022/11/28 05:19:17;;;;;;;14.80;11.73;;;7.20;99.90;;;;;;5111759;27;20150;-80
2022/11/28 05:21:43;;;;;;;18.42;12.10;;;7.20;99.90;;;;;;5127744;27;20498;-80
2022/11/28 05:24:09;;;;;;;19.17;13.02;;;7.20;99.90;;;;;;5095452;27;20093;-80
2022/11/28 05:26:36;;;;;;;19.08;12.73;;;7.20;99.90;;;;;;5094266;27;20038;-80
2022/11/28 05:29:03;;;;;;;15.68;12.02;;;7.20;99.90;;;;;;5128520;27;20042;-80
2022/11/28 05:31:29;;;;;;;18.83;13.07;;;7.30;99.90;;;;;;5093713;27;20077;-81
2022/11/28 05:33:55;;;;;;;17.52;11.73;;;8.20;99.90;;;;;;5110426;27;20114;-80
2022/11/28 05:36:21;;;;;;;22.60;13.02;;;7.30;99.90;;;;;;5128819;27;20564;-80
2022/11/28 05:38:47;;;;;;;16.65;12.32;;;7.90;99.90;;;;;;5109831;27;20252;-81
2022/11/28 05:41:25;;;;;;;16.33;11.10;;;7.30;99.90;;;;;;5110955;27;20054;-80
2022/11/28 05:43:51;;;;;;;15.43;12.02;;;7.40;99.90;;;;;;5127326;27;20146;-80
2022/11/28 05:46:18;;;;;;;14.68;11.57;;;7.40;99.90;;;;;;5128206;27;20129;-79
2022/11/28 05:48:43;;;;;;;15.68;11.00;;;7.40;99.90;;;;;;5111046;27;20043;-81
2022/11/28 05:51:09;;;;;;;14.98;12.52;;;7.40;99.90;;;;;;5128100;27;20061;-80
2022/11/28 05:53:35;;;;;;;13.63;11.35;;;7.40;99.90;;;;;;5110993;27;20042;-80
2022/11/28 05:56:09;;;;;;;17.50;10.98;;;7.70;99.90;;;;;;5127003;27;20080;-80
2022/11/28 05:58:35;;;;;;;14.57;11.32;;;7.50;99.90;;;;;;5128614;27;20081;-79
2022/11/28 06:01:09;;;;;;;16.50;10.52;;;7.40;99.90;;;;;;5127962;27;20513;-80
2022/11/28 06:03:35;;;;;;;16.77;11.07;;;7.50;99.90;;;;;;5127802;27;20041;-80
2022/11/28 06:06:01;;;;;;;17.48;11.48;;;7.50;99.90;;;;;;5111491;27;20043;-81
2022/11/28 06:08:27;;;;;;;14.23;10.85;;;7.50;99.90;;;;;;5096458;27;20495;-80
2022/11/28 06:10:57;;;;;;;15.20;10.63;;;7.50;99.90;;;;;;5115402;27;20089;-80
2022/11/28 06:13:23;;;;;;;17.67;11.38;;;7.50;99.90;;;;;;5114529;27;20039;-80
2022/11/28 06:15:49;;;;;;;15.25;11.45;;;7.50;99.90;;;;;;5132578;27;20501;-80
2022/11/28 06:18:14;;;;;;;16.67;10.68;;;7.60;99.90;;;;;;5131731;27;20435;-81
2022/11/28 06:20:40;;;;;;;16.75;11.77;;;7.60;99.90;;;;;;5114702;27;20100;-80
2022/11/28 06:23:05;;;;;;;14.68;11.30;;;7.60;99.90;;;;;;5131419;27;20098;-80
2022/11/28 06:25:31;;;;;;;15.27;10.90;;;7.60;99.90;;;;;;5114612;27;20374;-79
2022/11/28 06:27:57;;;;;;;16.20;11.38;;;7.60;99.90;;;;;;5132293;27;20779;-80
2022/11/28 06:30:23;;;;;;;19.65;11.65;;;8.60;99.90;;;;;;5113272;27;20122;-83
2022/11/28 06:32:48;;;;;;;12.77;10.57;;;7.50;99.90;;;;;;5115003;27;20370;-81
2022/11/28 06:35:14;;;;;;;17.85;11.00;;;7.60;99.90;;;;;;5114114;27;20042;-81
2022/11/28 06:37:40;;;;;;;17.08;11.38;;;7.60;99.90;;;;;;5132172;27;20159;-81
2022/11/28 06:40:06;;;;;;;16.35;11.27;;;7.60;99.90;;;;;;5131759;27;20074;-78
2022/11/28 06:42:35;;;;;;;15.70;11.50;;;7.70;99.90;;;;;;5131638;27;20047;-80
2022/11/28 06:45:01;;;;;;;17.63;11.32;;;7.70;99.90;;;;;;5132332;27;20073;-80
2022/11/28 06:47:27;;;;;;;16.27;10.40;;;7.70;99.90;;;;;;5130869;27;20546;-80
2022/11/28 06:49:52;;;;;;;22.17;11.68;;;7.70;99.90;;;;;;5114963;27;20129;-80
2022/11/28 06:52:18;;;;;;;17.00;9.88;;;7.70;99.90;;;;;;5130712;27;20042;-80
2022/11/28 06:54:44;;;;;;;19.67;10.07;;;7.70;99.90;;;;;;5131269;27;20386;-80
2022/11/28 06:57:09;;;;;;;13.63;9.88;;;7.70;99.90;;;;;;5113833;27;20043;-80
2022/11/28 06:59:35;;;;;;;16.65;10.27;;;8.20;99.90;;;;;;5114790;27;20134;-80
2022/11/28 07:02:02;;;;;;;13.68;9.30;;;7.70;99.90;;;;;;5131693;27;20043;-80
2022/11/28 07:04:28;;;;;;;12.25;9.57;;;7.80;99.90;;;;;;5113516;27;20099;-80
2022/11/28 07:06:54;;;;;;;13.45;9.43;;;8.60;99.90;;;;;;5115326;27;20618;-80
2022/11/28 07:09:19;;;;;;;14.55;9.30;;;7.80;99.90;;;;;;5113216;27;20346;-80
2022/11/28 07:11:45;;;;;;;14.43;9.40;;;7.80;99.90;;;;;;5131314;27;20038;-80
2022/11/28 07:14:11;;;;;;;11.50;9.57;;;7.90;99.90;;;;;;5113658;27;20053;-80
2022/11/28 07:16:36;;;;;;;13.38;8.70;;;7.80;99.90;;;;;;5080209;27;20050;-80
2022/11/28 07:19:03;;;;;;;15.02;8.90;;;7.80;99.90;;;;;;5130068;27;20046;-80
2022/11/28 07:21:29;;;;;;;11.30;8.45;;;7.80;99.90;;;;;;5113496;27;20126;-80
2022/11/28 07:23:57;;;;;;;10.55;7.65;;;7.80;99.90;;;;;;5131297;27;20579;-80
2022/11/28 07:26:22;;;;;;;16.55;8.38;;;7.80;99.90;;;;;;5129904;27;20075;-80
2022/11/28 07:28:50;;;;;;;11.25;8.13;;;7.80;99.90;;;;;;5113735;27;20122;-82
2022/11/28 07:31:21;;;;;;;10.55;8.50;;;8.10;99.90;;;;;;5130500;27;20109;-79
2022/11/28 07:33:48;;;;;;;10.07;7.30;;;7.80;99.90;;;;;;5131195;27;20043;-80
2022/11/28 07:36:26;;;;;;;15.48;8.23;;;7.80;99.90;;;;;;5130424;27;20087;-80
2022/11/28 07:38:54;;;;;;;13.98;7.97;;;8.70;99.90;;;;;;5129564;27;20038;-80
2022/11/28 07:41:21;;;;;;;12.65;7.97;;;7.80;99.90;;;;;;5130506;27;20050;-80
2022/11/28 07:43:47;;;;;;;13.23;8.07;;;7.80;99.90;;;;;;5112660;27;20039;-80
2022/11/28 07:46:15;;;;;;;10.02;7.80;;;7.80;99.90;;;;;;5113423;27;20045;-80
2022/11/28 07:48:42;;;;;;;11.05;8.23;;;7.80;99.90;;;;;;5130827;27;20386;-80
2022/11/28 07:51:18;;;;;;;10.05;7.80;;;7.90;99.90;;;;;;5129891;27;20051;-80
2022/11/28 07:53:43;;;;;;;11.00;8.38;;;7.80;99.90;;;;;;5130207;27;20043;-80
2022/11/28 07:56:13;;;;;;;10.07;7.22;;;8.80;99.90;;;;;;5112243;27;20104;-80
2022/11/28 07:58:40;;;;;;;12.00;8.35;;;7.80;99.90;;;;;;5130842;27;20038;-80
2022/11/28 08:01:16;;;;;;;13.45;8.75;;;7.90;99.90;;;;;;5095470;27;20035;-80
2022/11/28 08:03:46;;;;;;;13.98;9.05;;;7.90;99.90;;;;;;5129739;27;20051;-80
2022/11/28 08:06:12;;;;;;;10.65;7.50;;;8.50;99.90;;;;;;5130188;27;20090;-80
2022/11/28 08:08:38;;;;;;;10.23;8.30;;;7.90;99.90;;;;;;5111858;27;20122;-80
2022/11/28 08:11:07;;;;;;;10.38;7.25;;;7.90;99.90;;;;;;5113316;27;20125;-80
2022/11/28 08:13:33;;;;;;;12.35;8.13;;;7.90;99.90;;;;;;5129098;27;20053;-80
2022/11/28 08:16:07;;;;;;;12.32;7.78;;;7.90;99.90;;;;;;5129837;27;20043;-79
2022/11/28 08:18:34;;;;;;;11.10;8.25;;;7.90;99.90;;;;;;5112912;27;20122;-80
2022/11/28 08:21:05;;;;;;;15.10;8.82;;;7.90;99.90;;;;;;5129659;27;20078;-80
2022/11/28 08:23:33;;;;;;;9.85;8.18;;;7.90;99.90;;;;;;5129547;27;20046;-80
2022/11/28 08:26:01;;;;;;;13.32;9.35;;;7.90;99.90;;;;;;5128528;27;20042;-80
2022/11/28 08:28:27;;;;;;;13.05;9.10;;;7.90;99.90;;;;;;5113011;27;20099;-80
2022/11/28 08:30:52;;;;;;;12.63;8.68;;;7.90;99.90;;;;;;5128609;27;20051;-80
2022/11/28 08:33:18;;;;;;;13.77;8.57;;;7.90;99.90;;;;;;5112155;27;20366;-80
2022/11/28 08:35:44;;;;;;;14.82;8.68;;;7.90;99.90;;;;;;5095060;27;20043;-80
2022/11/28 08:38:09;;;;;;;16.40;9.25;;;7.90;99.90;;;;;;5095070;27;20164;-80
2022/11/28 08:40:35;;;;;;;11.98;9.05;;;8.00;99.90;;;;;;5112165;27;20102;-80
2022/11/28 08:43:01;;;;;;;11.68;8.73;;;7.90;99.90;;;;;;5094875;27;20046;-81
2022/11/28 08:45:26;;;;;;;13.45;8.07;;;8.00;99.90;;;;;;5129615;27;20050;-80
2022/11/28 08:47:52;;;;;;;12.85;8.60;;;8.20;99.90;;;;;;5111453;27;20049;-81
2022/11/28 08:50:18;;;;;;;9.85;7.60;;;8.00;99.90;;;;;;5128965;27;20834;-80
2022/11/28 08:52:44;;;;;;;9.55;7.00;;;8.00;99.90;;;;;;5111417;27;20073;-79
2022/11/28 08:55:10;;;;;;;11.45;8.00;;;8.00;99.90;;;;;;5094387;27;20082;-80
2022/11/28 08:57:36;;;;;;;8.57;6.93;;;8.00;99.90;;;;;;5129137;27;20481;-80
2022/11/28 09:00:02;;;;;;;11.05;6.63;;;8.00;99.90;;;;;;5111109;27;20043;-79
2022/11/28 09:02:28;;;;;;;8.60;6.68;;;8.00;99.90;;;;;;5111781;27;20127;-80
2022/11/28 09:04:54;;;;;;;8.38;6.88;;;8.00;99.90;;;;;;5127985;27;20078;-80
2022/11/28 09:07:19;;;;;;;10.43;7.18;;;8.90;99.90;;;;;;5094401;27;20050;-79
2022/11/28 09:09:45;;;;;;;8.65;6.60;;;8.60;99.90;;;;;;5110999;27;20042;-82
2022/11/28 09:12:11;;;;;;;11.65;7.22;;;8.00;99.90;;;;;;5093746;27;20057;-80
2022/11/28 09:14:36;;;;;;;7.78;5.75;;;8.00;99.90;;;;;;5111189;27;20085;-80
2022/11/28 09:17:02;;;;;;;8.10;6.40;;;8.00;99.90;;;;;;5127540;27;20126;-80
2022/11/28 09:19:28;;;;;;;6.97;5.90;;;8.10;99.90;;;;;;5111618;27;20038;-80
2022/11/28 09:21:54;;;;;;;10.43;6.65;;;8.40;99.90;;;;;;5093564;27;20141;-80
2022/11/28 09:24:19;;;;;;;8.95;5.60;;;8.10;99.90;;;;;;5094738;27;20053;-80
2022/11/28 09:26:45;;;;;;;7.72;5.50;;;8.10;99.90;;;;;;5110329;27;20126;-80
2022/11/28 09:29:11;;;;;;;7.93;5.22;;;8.10;99.90;;;;;;5093591;27;20054;-81
2022/11/28 09:31:36;;;;;;;7.78;5.28;;;8.80;99.90;;;;;;5127841;27;20082;-80
2022/11/28 09:34:03;;;;;;;7.05;5.18;;;8.10;99.90;;;;;;5110475;27;20560;-82
2022/11/28 09:36:30;;;;;;;9.27;5.35;;;8.40;99.90;;;;;;5095301;27;20102;-80
2022/11/28 09:38:59;;;;;;;13.63;8.50;;;8.10;99.90;;;;;;5110146;27;20039;-80
2022/11/28 09:41:27;;;;;;;10.15;6.80;;;8.40;99.90;;;;;;5110363;27;20093;-81
2022/11/28 09:43:56;;;;;;;24.48;14.32;;;8.20;99.90;;;;;;5127725;27;20039;-80
2022/11/28 09:46:28;;;;;;;7.63;5.32;;;8.20;99.90;;;;;;5110524;27;20485;-80
2022/11/28 09:48:59;;;;;;;9.27;4.95;;;8.20;99.90;;;;;;5128590;27;20047;-80
2022/11/28 09:51:39;;;;;;;7.22;5.00;;;8.20;99.90;;;;;;5127423;27;20175;-81
2022/11/28 09:54:29;;;;;;;8.13;4.55;;;8.20;99.90;;;;;;5128088;27;20050;-80
2022/11/28 09:56:57;;;;;;;8.85;4.63;;;8.20;99.90;;;;;;5111084;27;20051;-80
2022/11/28 09:59:24;;;;;;;7.45;4.72;;;8.30;99.90;;;;;;5127763;27;20046;-80
2022/11/28 10:02:23;;;;;;;6.32;4.13;;;8.30;99.90;;;;;;5110938;27;20068;-80
2022/11/28 10:05:29;;;;;;;5.63;4.53;;;8.70;99.90;;;;;;5110067;27;20050;-81
2022/11/28 10:07:58;;;;;;;5.05;3.95;;;8.30;99.90;;;;;;5098546;27;20564;-80
2022/11/28 10:10:49;;;;;;;5.10;3.55;;;8.30;99.90;;;;;;5110530;27;20046;-80
2022/11/28 10:13:48;;;;;;;8.25;3.83;;;8.30;99.90;;;;;;5127086;27;20507;-80
2022/11/28 10:16:28;;;;;;;4.38;3.30;;;8.30;99.90;;;;;;5127439;27;20508;-80
2022/11/28 10:18:59;;;;;;;7.88;3.50;;;8.30;99.90;;;;;;5110618;27;20042;-81
2022/11/28 10:21:54;;;;;;;7.63;3.88;;;8.30;99.90;;;;;;5126995;27;20087;-80
2022/11/28 10:24:27;;;;;;;4.85;4.07;;;8.40;99.90;;;;;;5125768;27;20054;-81
2022/11/28 10:27:00;;;;;;;4.82;3.67;;;9.20;99.90;;;;;;5127439;27;20517;-82
2022/11/28 10:29:52;;;;;;;6.65;3.85;;;8.30;99.90;;;;;;5127188;27;20039;-82
2022/11/28 10:32:47;;;;;;;4.85;3.78;;;9.10;99.90;;;;;;5126606;27;20047;-81
2022/11/28 10:35:38;;;;;;;4.57;3.55;;;8.40;99.90;;;;;;5110278;27;20050;-80
2022/11/28 10:38:13;;;;;;;6.70;3.40;;;8.40;99.90;;;;;;5127687;27;20091;-81
2022/11/28 10:41:00;;;;;;;4.50;3.88;;;8.40;99.90;;;;;;5110395;27;20058;-82
2022/11/28 10:43:54;;;;;;;9.02;3.70;;;8.40;99.90;;;;;;5127317;27;20058;-82
2022/11/28 10:46:39;;;;;;;6.93;3.83;;;8.40;99.90;;;;;;5110488;27;20055;-81
2022/11/28 10:49:26;;;;;;;5.20;3.67;;;8.40;99.90;;;;;;5110220;27;20559;-81
2022/11/28 10:52:00;;;;;;;5.50;4.05;;;8.50;99.90;;;;;;5126640;27;20046;-81
2022/11/28 10:54:51;;;;;;;4.35;3.67;;;8.50;99.90;;;;;;5113736;27;20050;-81
2022/11/28 10:57:26;;;;;;;8.77;4.32;;;8.50;99.90;;;;;;5113667;27;20046;-81
2022/11/28 11:00:11;;;;;;;4.90;4.00;;;8.60;99.90;;;;;;5130399;27;20121;-81
2022/11/28 11:02:43;;;;;;;5.07;3.00;;;8.50;99.90;;;;;;5131021;27;20042;-81
2022/11/28 11:05:16;;;;;;;4.82;3.83;;;8.50;99.90;;;;;;5130455;27;20049;-81
2022/11/28 11:08:01;;;;;;;4.40;3.72;;;8.50;99.90;;;;;;5130431;27;20043;-81
2022/11/28 11:10:48;;;;;;;4.93;3.95;;;8.60;99.90;;;;;;5130991;27;20568;-80
2022/11/28 11:13:23;;;;;;;7.03;3.67;;;8.60;99.90;;;;;;5130285;27;20044;-80
2022/11/28 11:16:06;;;;;;;4.97;3.35;;;8.70;99.90;;;;;;5113330;27;20046;-80
2022/11/28 11:18:53;;;;;;;4.57;3.10;;;8.80;99.90;;;;;;5130958;27;20389;-80
2022/11/28 11:21:23;;;;;;;8.68;4.13;;;8.70;99.90;;;;;;5130364;27;20047;-80
2022/11/28 11:24:19;;;;;;;4.72;4.15;;;8.70;99.90;;;;;;5130503;27;20042;-80
2022/11/28 11:26:48;;;;;;;5.93;4.13;;;8.70;99.90;;;;;;5108516;27;20043;-80
2022/11/28 11:29:34;;;;;;;4.05;3.47;;;8.80;99.90;;;;;;5129996;27;20046;-80
2022/11/28 11:32:04;;;;;;;7.20;3.30;;;8.80;99.90;;;;;;5130649;27;20478;-81
2022/11/28 11:34:42;;;;;;;4.50;3.55;;;8.80;99.90;;;;;;5130091;27;20568;-80
2022/11/28 11:37:34;;;;;;;6.47;4.88;;;8.80;99.90;;;;;;5130148;27;20049;-80
2022/11/28 11:40:01;;;;;;;4.15;3.20;;;8.80;99.90;;;;;;5129834;27;20119;-80
2022/11/28 11:42:29;;;;;;;4.40;3.65;;;8.80;99.90;;;;;;5112861;27;20086;-80
2022/11/28 11:44:56;;;;;;;7.55;4.63;;;8.80;99.90;;;;;;5130248;27;20077;-80
2022/11/28 11:47:42;;;;;;;4.70;3.67;;;8.80;99.90;;;;;;5148703;27;20043;-80
2022/11/28 11:50:19;;;;;;;6.28;3.38;;;8.90;99.90;;;;;;5129803;27;20038;-80
2022/11/28 11:53:21;;;;;;;4.07;3.53;;;8.90;99.90;;;;;;5112552;27;20046;-80
2022/11/28 11:55:49;;;;;;;5.07;3.88;;;9.00;99.90;;;;;;5010588;28;20037;-80
2022/11/28 11:58:22;;;;;;;7.38;3.60;;;9.60;99.90;;;;;;5093714;27;20082;-80
2022/11/28 12:00:51;;;;;;;11.05;4.57;;;9.00;99.90;;;;;;5130058;27;20393;-79
2022/11/28 12:03:35;;;;;;;5.60;3.97;;;9.00;99.90;;;;;;5129792;27;20573;-79
2022/11/28 12:06:14;;;;;;;6.25;4.60;;;10.10;99.90;;;;;;5129477;27;20490;-79
2022/11/28 12:09:07;;;;;;;8.13;4.20;;;9.10;99.90;;;;;;5129372;27;20050;-79
2022/11/28 12:11:39;;;;;;;5.40;3.72;;;9.10;99.90;;;;;;5112567;27;20050;-79
2022/11/28 12:14:32;;;;;;;5.43;4.18;;;9.10;99.90;;;;;;5129354;27;20047;-79
2022/11/28 12:16:58;;;;;;;;;;;9.10;99.90;;;;;;5125689;27;20065;-79
2022/11/28 12:19:49;;;;;;;7.10;4.13;;;9.30;99.90;;;;;;5129400;27;19919;-79
2022/11/28 12:22:37;;;;;;;5.75;4.13;;;9.10;99.90;;;;;;5129019;27;20050;-79
2022/11/28 12:25:28;;;;;;;6.43;4.47;;;9.20;99.90;;;;;;5128799;27;20498;-79
2022/11/28 12:28:17;;;;;;;5.40;4.25;;;9.20;99.90;;;;;;5129345;27;20051;-79
2022/11/28 12:30:55;;;;;;;5.80;4.68;;;9.20;99.90;;;;;;5128970;27;20043;-79
2022/11/28 12:33:51;;;;;;;6.18;4.20;;;9.20;99.90;;;;;;5112032;27;20068;-79
2022/11/28 12:36:36;;;;;;;5.70;3.90;;;9.20;99.90;;;;;;5112620;27;20508;-79
2022/11/28 12:39:13;;;;;;;5.45;4.38;;;9.50;99.90;;;;;;5129400;27;20430;-79
2022/11/28 12:42:00;;;;;;;7.38;4.05;;;9.20;99.90;;;;;;5128831;27;20050;-79
2022/11/28 12:44:57;;;;;;;6.30;4.15;;;9.20;99.90;;;;;;5129422;27;20701;-79
2022/11/28 12:47:29;;;;;;;5.72;3.90;;;9.30;99.90;;;;;;5128997;27;20043;-79
2022/11/28 12:50:23;;;;;;;4.95;4.22;;;9.30;99.90;;;;;;5111493;27;20038;-79
2022/11/28 12:52:56;;;;;;;5.28;4.65;;;9.30;99.90;;;;;;5128596;27;20621;-79
2022/11/28 12:55:29;;;;;;;;;;;9.30;99.90;;;;;;5128657;27;20505;-79
2022/11/28 12:58:17;;;;;;;5.00;3.08;;;9.40;99.90;;;;;;5111892;27;19929;-79
2022/11/28 13:01:12;;;;;;;5.50;4.60;;;9.30;99.90;;;;;;5128933;27;20078;-79
2022/11/28 13:04:03;;;;;;;5.22;4.43;;;9.30;99.90;;;;;;5111057;27;20057;-79
2022/11/28 13:06:54;;;;;;;9.55;5.35;;;9.40;99.90;;;;;;5129220;27;20050;-79
2022/11/28 13:09:52;;;;;;;5.55;4.38;;;9.30;99.90;;;;;;5111851;27;20042;-79
2022/11/28 13:12:35;;;;;;;5.30;3.90;;;9.50;99.90;;;;;;5099443;27;20106;-79
2022/11/28 13:15:53;;;;;;;5.47;4.20;;;9.30;99.90;;;;;;5111305;27;20050;-79
2022/11/28 13:18:48;;;;;;;5.90;4.18;;;9.30;99.90;;;;;;5097095;27;20051;-80
2022/11/28 13:21:28;;;;;;;4.60;4.18;;;9.30;99.90;;;;;;5127837;27;20485;-80
2022/11/28 13:24:17;;;;;;;5.25;4.15;;;9.30;99.90;;;;;;5128205;27;20042;-79